createdAt,value
2022-10-28T00:01:05.274Z,2.97
2022-10-28T00:03:33.500Z,2.80
2022-10-28T00:06:05.340Z,3.50
2022-10-28T00:08:33.703Z,3.40
2022-10-28T00:11:06.791Z,3.33
2022-10-28T00:13:35.144Z,2.90
2022-10-28T00:16:09.930Z,3.00
2022-10-28T00:18:38.503Z,3.03
2022-10-28T00:21:08.440Z,2.70
2022-10-28T00:23:36.280Z,3.27
2022-10-28T00:26:09.254Z,3.17
2022-10-28T00:28:40.615Z,3.83
2022-10-28T00:31:11.514Z,2.83
2022-10-28T00:33:39.910Z,3.70
2022-10-28T00:36:13.115Z,3.23
2022-10-28T00:38:41.947Z,3.70
2022-10-28T00:41:10.961Z,2.90
2022-10-28T00:43:40.896Z,3.20
2022-10-28T00:46:17.403Z,3.27
2022-10-28T00:48:48.638Z,3.40
2022-10-28T00:51:18.818Z,3.17
2022-10-28T00:53:48.827Z,3.73
2022-10-28T00:56:18.503Z,2.70
2022-10-28T00:58:48.031Z,2.87
2022-10-28T01:01:17.305Z,2.63
2022-10-28T01:03:45.263Z,3.60
2022-10-28T01:06:13.539Z,2.83
2022-10-28T01:08:41.336Z,3.17
2022-10-28T01:11:46.391Z,3.63
2022-10-28T01:14:20.988Z,3.33
2022-10-28T01:17:06.138Z,3.40
2022-10-28T01:20:09.313Z,2.90
2022-10-28T01:22:43.463Z,3.20
2022-10-28T01:25:51.415Z,3.40
2022-10-28T01:28:47.288Z,2.87
2022-10-28T01:31:28.048Z,2.90
2022-10-28T01:34:07.820Z,3.47
2022-10-28T01:36:39.931Z,3.43
2022-10-28T01:39:16.342Z,3.00
2022-10-28T01:41:52.304Z,3.07
2022-10-28T01:44:28.084Z,3.10
2022-10-28T01:47:05.459Z,3.30
2022-10-28T01:49:39.446Z,3.10
2022-10-28T01:52:12.167Z,2.50
2022-10-28T01:54:43.863Z,2.60
2022-10-28T01:57:14.356Z,2.80
2022-10-28T01:59:42.751Z,2.87
2022-10-28T02:02:11.901Z,3.00
2022-10-28T02:04:39.719Z,2.90
2022-10-28T02:07:07.716Z,2.77
2022-10-28T02:09:48.376Z,3.03
2022-10-28T02:12:27.223Z,2.90
2022-10-28T02:15:12.380Z,2.90
2022-10-28T02:17:54.331Z,2.90
2022-10-28T02:20:33.958Z,3.90
2022-10-28T02:23:12.211Z,4.10
2022-10-28T02:25:44.380Z,2.73
2022-10-28T02:28:16.806Z,2.50
2022-10-28T02:30:49.416Z,2.50
2022-10-28T02:33:22.483Z,2.53
2022-10-28T02:35:55.559Z,3.20
2022-10-28T02:38:28.759Z,2.67
2022-10-28T02:41:02.773Z,2.57
2022-10-28T02:43:34.214Z,2.83
2022-10-28T02:46:04.437Z,2.90
2022-10-28T02:48:37.654Z,3.17
2022-10-28T02:51:09.831Z,2.53
2022-10-28T02:53:45.380Z,3.27
2022-10-28T02:56:16.707Z,3.30
2022-10-28T02:58:46.214Z,2.50
2022-10-28T03:01:14.263Z,3.00
2022-10-28T03:03:43.588Z,2.70
2022-10-28T03:06:11.459Z,3.00
2022-10-28T03:08:39.331Z,2.43
2022-10-28T03:11:07.296Z,3.00
2022-10-28T03:13:35.139Z,3.20
2022-10-28T03:16:02.939Z,2.70
2022-10-28T03:18:30.773Z,2.53
2022-10-28T03:20:59.925Z,2.40
2022-10-28T03:23:27.744Z,2.70
2022-10-28T03:25:55.543Z,2.70
2022-10-28T03:28:23.357Z,2.60
2022-10-28T03:30:51.209Z,3.07
2022-10-28T03:33:19.026Z,2.50
2022-10-28T03:35:46.832Z,2.70
2022-10-28T03:38:15.989Z,3.83
2022-10-28T03:40:43.927Z,2.50
2022-10-28T03:43:11.721Z,2.87
2022-10-28T03:45:39.556Z,2.20
2022-10-28T03:48:07.681Z,2.03
2022-10-28T03:50:35.651Z,2.40
2022-10-28T03:53:03.674Z,2.70
2022-10-28T03:55:32.865Z,2.73
2022-10-28T03:58:02.044Z,2.57
2022-10-28T04:00:29.909Z,2.73
2022-10-28T04:02:57.712Z,2.57
2022-10-28T04:05:25.589Z,2.80
2022-10-28T04:07:54.133Z,2.90
2022-10-28T04:10:22.045Z,2.30
2022-10-28T04:12:51.348Z,2.73
2022-10-28T04:15:19.313Z,3.13
2022-10-28T04:17:47.105Z,2.90
2022-10-28T04:20:14.913Z,2.80
2022-10-28T04:22:42.716Z,2.60
2022-10-28T04:25:11.161Z,3.33
2022-10-28T04:27:39.134Z,2.90
2022-10-28T04:30:10.263Z,3.30
2022-10-28T04:32:38.060Z,4.50
2022-10-28T04:35:06.695Z,4.57
2022-10-28T04:37:34.518Z,4.00
2022-10-28T04:40:02.730Z,4.43
2022-10-28T04:42:30.565Z,3.57
2022-10-28T04:44:58.596Z,3.33
2022-10-28T04:47:27.780Z,3.50
2022-10-28T04:49:55.613Z,4.30
2022-10-28T04:52:23.443Z,4.53
2022-10-28T04:54:51.266Z,3.37
2022-10-28T04:57:19.110Z,3.60
2022-10-28T04:59:46.907Z,3.43
2022-10-28T05:02:14.800Z,3.07
2022-10-28T05:04:44.088Z,2.67
2022-10-28T05:07:11.946Z,3.40
2022-10-28T05:09:39.789Z,3.20
2022-10-28T05:12:07.734Z,3.40
2022-10-28T05:14:35.711Z,3.10
2022-10-28T05:17:03.555Z,3.10
2022-10-28T05:19:31.516Z,3.60
2022-10-28T05:22:00.671Z,3.07
2022-10-28T05:24:28.536Z,3.27
2022-10-28T05:26:56.351Z,3.60
2022-10-28T05:29:26.947Z,3.67
2022-10-28T05:31:57.608Z,3.37
2022-10-28T05:34:25.470Z,3.60
2022-10-28T05:36:53.340Z,3.43
2022-10-28T05:39:22.542Z,3.63
2022-10-28T05:41:50.331Z,3.40
2022-10-28T05:44:18.149Z,3.43
2022-10-28T05:46:46.055Z,3.90
2022-10-28T05:49:13.874Z,3.77
2022-10-28T05:51:41.721Z,3.60
2022-10-28T05:54:09.585Z,4.23
2022-10-28T05:56:38.795Z,3.63
2022-10-28T05:59:06.676Z,3.30
2022-10-28T06:01:34.609Z,3.50
2022-10-28T06:04:02.492Z,3.63
2022-10-28T06:06:30.717Z,4.13
2022-10-28T06:08:58.587Z,3.83
2022-10-28T06:11:24.939Z,4.20
2022-10-28T06:13:54.072Z,4.00
2022-10-28T06:16:21.909Z,3.87
2022-10-28T06:18:49.707Z,3.87
2022-10-28T06:21:17.614Z,4.67
2022-10-28T06:23:46.704Z,3.80
2022-10-28T06:26:14.551Z,4.03
2022-10-28T06:28:42.386Z,4.23
2022-10-28T06:31:11.573Z,4.33
2022-10-28T06:33:39.393Z,4.27
2022-10-28T06:36:07.805Z,4.33
2022-10-28T06:38:35.719Z,4.20
2022-10-28T06:41:03.982Z,5.80
2022-10-28T06:43:31.827Z,4.00
2022-10-28T06:46:01.435Z,4.00
2022-10-28T06:48:32.201Z,3.97
2022-10-28T06:51:00.022Z,4.10
2022-10-28T06:53:27.888Z,4.13
2022-10-28T06:55:56.554Z,4.17
2022-10-28T06:58:24.784Z,4.00
2022-10-28T07:00:53.071Z,4.23
2022-10-28T07:03:21.646Z,4.43
2022-10-28T07:05:51.504Z,4.10
2022-10-28T07:08:19.603Z,3.70
2022-10-28T07:10:55.219Z,5.20
2022-10-28T07:13:23.139Z,3.90
2022-10-28T07:15:53.480Z,3.50
2022-10-28T07:18:21.658Z,3.83
2022-10-28T07:20:51.221Z,5.20
2022-10-28T07:23:19.957Z,4.50
2022-10-28T07:28:21.602Z,4.40
2022-10-28T07:30:49.914Z,5.40
2022-10-28T07:33:17.780Z,6.13
2022-10-28T07:35:45.661Z,4.90
2022-10-28T07:38:14.890Z,5.23
2022-10-28T07:40:42.731Z,4.40
2022-10-28T07:43:10.667Z,4.57
2022-10-28T07:45:39.084Z,5.00
2022-10-28T07:48:07.848Z,4.93
2022-10-28T07:50:35.811Z,5.33
2022-10-28T07:53:03.792Z,5.90
2022-10-28T07:55:32.992Z,5.03
2022-10-28T07:58:00.811Z,5.43
2022-10-28T08:00:28.655Z,5.00
2022-10-28T08:02:56.494Z,5.17
2022-10-28T08:05:24.323Z,4.17
2022-10-28T08:07:52.546Z,4.77
2022-10-28T08:10:20.661Z,4.57
2022-10-28T08:12:49.793Z,4.90
2022-10-28T08:15:18.414Z,4.73
2022-10-28T08:17:52.329Z,5.97
2022-10-28T08:20:20.428Z,5.10
2022-10-28T08:22:48.512Z,5.63
2022-10-28T08:25:16.536Z,6.00
2022-10-28T08:27:44.405Z,5.20
2022-10-28T08:30:14.098Z,5.60
2022-10-28T08:32:41.958Z,5.17
2022-10-28T08:35:10.416Z,5.60
2022-10-28T08:37:38.249Z,5.80
2022-10-28T08:40:07.454Z,4.50
2022-10-28T08:42:42.218Z,5.90
2022-10-28T08:45:26.536Z,5.40
2022-10-28T08:48:08.754Z,5.10
2022-10-28T08:50:45.926Z,5.60
2022-10-28T08:53:17.877Z,5.57
2022-10-28T08:55:48.921Z,5.97
2022-10-28T08:58:23.190Z,5.07
2022-10-28T09:00:55.224Z,5.80
2022-10-28T09:03:25.641Z,5.67
2022-10-28T09:06:01.808Z,4.70
2022-10-28T09:08:32.630Z,4.27
2022-10-28T09:11:31.478Z,5.47
2022-10-28T09:14:17.321Z,4.87
2022-10-28T09:16:49.324Z,5.60
2022-10-28T09:19:28.602Z,6.00
2022-10-28T09:22:08.066Z,6.30
2022-10-28T09:24:46.994Z,5.60
2022-10-28T09:27:24.115Z,5.07
2022-10-28T09:30:01.746Z,5.13
2022-10-28T09:32:42.557Z,4.90
2022-10-28T09:35:14.752Z,4.37
2022-10-28T09:37:46.795Z,4.90
2022-10-28T09:40:20.263Z,3.63
2022-10-28T09:42:56.348Z,4.70
2022-10-28T09:45:29.034Z,4.10
2022-10-28T09:48:02.375Z,4.70
2022-10-28T09:50:32.726Z,3.90
2022-10-28T09:53:07.295Z,3.97
2022-10-28T09:55:35.146Z,4.20
2022-10-28T09:58:04.574Z,4.13
2022-10-28T10:00:33.095Z,4.60
2022-10-28T10:03:02.371Z,4.93
2022-10-28T10:05:32.034Z,5.10
2022-10-28T10:08:02.645Z,4.73
2022-10-28T10:10:37.089Z,4.30
2022-10-28T10:13:07.936Z,4.67
2022-10-28T10:15:43.697Z,4.47
2022-10-28T10:18:18.265Z,4.10
2022-10-28T10:20:51.708Z,4.60
2022-10-28T10:23:29.973Z,4.00
2022-10-28T10:26:08.111Z,3.60
2022-10-28T10:28:44.172Z,3.87
2022-10-28T10:31:19.636Z,4.40
2022-10-28T10:33:52.861Z,4.00
2022-10-28T10:36:23.557Z,4.10
2022-10-28T10:38:54.068Z,4.87
2022-10-28T10:41:35.922Z,4.90
2022-10-28T10:44:24.491Z,4.97
2022-10-28T10:47:23.321Z,5.13
2022-10-28T10:49:52.036Z,4.30
2022-10-28T10:52:23.760Z,4.20
2022-10-28T10:55:00.728Z,5.17
2022-10-28T10:57:29.142Z,4.53
2022-10-28T10:59:58.343Z,4.80
2022-10-28T11:02:29.437Z,5.63
2022-10-28T11:05:00.272Z,5.30
2022-10-28T11:07:29.173Z,5.17
2022-10-28T11:09:57.122Z,4.70
2022-10-28T11:12:30.238Z,4.97
2022-10-28T11:14:59.832Z,4.70
2022-10-28T11:20:24.936Z,6.70
2022-10-28T11:23:03.668Z,6.43
2022-10-28T11:25:39.114Z,5.00
2022-10-28T11:28:33.375Z,5.07
2022-10-28T11:31:17.134Z,3.83
2022-10-28T11:33:54.118Z,5.23
2022-10-28T11:36:28.302Z,4.93
2022-10-28T11:39:20.760Z,4.40
2022-10-28T11:41:59.916Z,4.07
2022-10-28T11:47:26.800Z,5.03
2022-10-28T11:50:15.763Z,4.47
2022-10-28T11:52:58.628Z,4.10
2022-10-28T11:55:35.686Z,4.60
2022-10-28T12:01:01.584Z,4.30
2022-10-28T12:03:44.195Z,4.30
2022-10-28T12:06:21.324Z,4.90
2022-10-28T12:09:10.273Z,4.10
2022-10-28T12:14:32.781Z,3.37
2022-10-28T12:17:12.881Z,4.60
2022-10-28T12:19:46.785Z,3.80
2022-10-28T12:22:23.174Z,3.90
2022-10-28T12:24:53.186Z,3.93
2022-10-28T12:27:26.604Z,3.53
2022-10-28T12:29:59.754Z,4.07
2022-10-28T12:32:31.964Z,2.90
2022-10-28T12:35:03.957Z,4.03
2022-10-28T12:37:41.089Z,4.50
2022-10-28T12:40:18.043Z,4.63
2022-10-28T12:42:51.699Z,4.67
2022-10-28T12:45:22.242Z,5.23
2022-10-28T12:47:58.881Z,3.60
2022-10-28T12:50:33.268Z,5.00
2022-10-28T12:53:19.756Z,4.90
2022-10-28T12:55:51.459Z,4.80
2022-10-28T12:58:23.150Z,3.83
2022-10-28T13:00:55.431Z,3.40
2022-10-28T13:03:23.335Z,3.60
2022-10-28T13:06:00.739Z,2.90
2022-10-28T13:09:13.230Z,2.87
2022-10-28T13:12:15.849Z,3.63
2022-10-28T13:15:12.785Z,4.40
2022-10-28T13:17:52.198Z,11.00
2022-10-28T13:20:29.617Z,5.60
2022-10-28T13:23:17.285Z,3.83
2022-10-28T13:26:11.242Z,4.70
2022-10-28T13:28:47.230Z,2.97
2022-10-28T13:31:15.685Z,3.23
2022-10-28T13:33:52.226Z,3.40
2022-10-28T13:36:25.893Z,4.30
2022-10-28T13:38:56.730Z,3.67
2022-10-28T13:41:34.916Z,4.60
2022-10-28T13:44:47.365Z,5.10
2022-10-28T13:47:30.083Z,4.40
2022-10-28T13:50:34.068Z,3.93
2022-10-28T13:53:42.040Z,3.93
2022-10-28T13:56:36.369Z,3.03
2022-10-28T13:59:07.062Z,4.30
2022-10-28T14:02:07.373Z,5.53
2022-10-28T14:04:43.950Z,5.27
2022-10-28T14:07:22.303Z,8.50
2022-10-28T14:09:54.678Z,9.27
2022-10-28T14:12:28.858Z,10.80
2022-10-28T14:15:13.990Z,9.70
2022-10-28T14:17:49.445Z,10.67
2022-10-28T14:20:28.320Z,9.17
2022-10-28T14:22:56.336Z,8.80
2022-10-28T14:26:04.356Z,5.97
2022-10-28T14:28:53.101Z,5.40
2022-10-28T14:31:34.337Z,4.33
2022-10-28T14:34:41.508Z,3.70
2022-10-28T14:37:40.908Z,3.90
2022-10-28T14:40:37.317Z,3.93
2022-10-28T14:43:37.097Z,4.90
2022-10-28T14:46:24.284Z,5.33
2022-10-28T14:48:54.038Z,3.93
2022-10-28T14:51:24.554Z,4.43
2022-10-28T14:53:57.601Z,3.40
2022-10-28T14:56:27.867Z,3.50
2022-10-28T14:58:59.342Z,3.50
2022-10-28T15:01:29.976Z,3.80
2022-10-28T15:04:03.885Z,3.10
2022-10-28T15:06:37.241Z,2.90
2022-10-28T15:09:14.451Z,3.83
2022-10-28T15:11:45.467Z,4.33
2022-10-28T15:14:24.833Z,5.00
2022-10-28T15:16:52.680Z,4.40
2022-10-28T15:19:22.571Z,3.07
2022-10-28T15:22:04.920Z,3.30
2022-10-28T15:24:34.278Z,3.70
2022-10-28T15:27:02.137Z,3.80
2022-10-28T15:29:30.221Z,4.10
2022-10-28T15:32:11.346Z,3.27
2022-10-28T15:34:39.206Z,3.47
2022-10-28T15:37:07.741Z,3.50
2022-10-28T15:39:38.713Z,3.73
2022-10-28T15:42:31.527Z,4.47
2022-10-28T15:45:00.090Z,3.50
2022-10-28T15:47:33.229Z,3.00
2022-10-28T15:50:20.860Z,3.73
2022-10-28T15:52:50.084Z,4.17
2022-10-28T15:55:47.599Z,4.30
2022-10-28T15:58:36.948Z,4.50
2022-10-28T16:01:09.283Z,4.00
2022-10-28T16:03:45.585Z,5.30
2022-10-28T16:06:24.662Z,5.07
2022-10-28T16:09:07.556Z,4.00
2022-10-28T16:11:41.338Z,4.03
2022-10-28T16:14:29.320Z,3.77
2022-10-28T16:19:39.269Z,4.13
2022-10-28T16:22:07.704Z,3.63
2022-10-28T16:24:35.575Z,4.50
2022-10-28T16:27:19.399Z,3.77
2022-10-28T16:29:47.546Z,3.27
2022-10-28T16:32:17.067Z,3.80
2022-10-28T16:34:45.146Z,4.30
2022-10-28T16:37:21.811Z,4.23
2022-10-28T16:39:49.780Z,4.47
2022-10-28T16:42:20.413Z,4.43
2022-10-28T16:44:48.707Z,3.80
2022-10-28T16:47:18.246Z,3.93
2022-10-28T16:49:52.446Z,4.50
2022-10-28T16:52:26.007Z,4.03
2022-10-28T16:54:53.967Z,3.53
2022-10-28T16:59:56.456Z,3.97
2022-10-28T17:02:28.719Z,3.87
2022-10-28T17:04:57.106Z,4.40
2022-10-28T17:07:25.557Z,3.90
2022-10-28T17:09:53.607Z,4.90
2022-10-28T17:12:24.187Z,4.00
2022-10-28T17:14:52.481Z,3.83
2022-10-28T17:17:20.606Z,4.07
2022-10-28T17:19:48.468Z,4.00
2022-10-28T17:22:16.262Z,4.07
2022-10-28T17:24:44.108Z,4.20
2022-10-28T17:27:12.804Z,4.23
2022-10-28T17:29:42.166Z,3.83
2022-10-28T17:32:10.247Z,3.83
2022-10-28T17:34:38.318Z,3.90
2022-10-28T17:37:07.572Z,4.30
2022-10-28T17:39:35.512Z,3.57
2022-10-28T17:42:03.622Z,3.40
2022-10-28T17:44:31.529Z,3.20
2022-10-28T17:47:00.694Z,3.57
2022-10-28T17:49:28.515Z,3.20
2022-10-28T17:51:56.496Z,3.17
2022-10-28T17:56:57.056Z,4.60
2022-10-28T17:59:25.074Z,3.70
2022-10-28T18:01:54.349Z,3.80
2022-10-28T18:04:26.157Z,4.10
2022-10-28T18:06:55.236Z,3.50
2022-10-28T18:09:23.334Z,4.50
2022-10-28T18:11:51.628Z,4.17
2022-10-28T18:14:20.099Z,4.93
2022-10-28T18:16:50.111Z,4.93
2022-10-28T18:19:18.308Z,4.37
2022-10-28T18:21:47.653Z,3.87
2022-10-28T18:24:15.475Z,4.63
2022-10-28T18:26:43.304Z,3.73
2022-10-28T18:29:13.079Z,4.13
2022-10-28T18:31:43.894Z,4.17
2022-10-28T18:34:12.244Z,4.80
2022-10-28T18:36:40.114Z,4.43
2022-10-28T18:39:09.475Z,3.90
2022-10-28T18:41:41.763Z,4.60
2022-10-28T18:44:14.026Z,3.90
2022-10-28T18:46:42.023Z,3.43
2022-10-28T18:49:09.888Z,4.10
2022-10-28T18:51:37.804Z,5.03
2022-10-28T18:54:06.041Z,3.93
2022-10-28T18:56:35.216Z,4.13
2022-10-28T18:59:04.289Z,5.13
2022-10-28T19:01:33.316Z,4.70
2022-10-28T19:04:02.972Z,4.10
2022-10-28T19:06:33.280Z,5.00
2022-10-28T19:09:02.366Z,5.20
2022-10-28T19:11:31.961Z,5.37
2022-10-28T19:14:02.680Z,3.63
2022-10-28T19:16:33.267Z,3.83
2022-10-28T19:19:02.306Z,5.13
2022-10-28T19:21:30.711Z,3.37
2022-10-28T19:23:58.740Z,3.60
2022-10-28T19:26:27.819Z,3.80
2022-10-28T19:28:55.960Z,3.87
2022-10-28T19:31:27.210Z,3.60
2022-10-28T19:33:55.850Z,4.03
2022-10-28T19:36:25.017Z,7.43
2022-10-28T19:38:54.343Z,4.30
2022-10-28T19:41:23.611Z,3.63
2022-10-28T19:43:57.804Z,3.83
2022-10-28T19:46:29.203Z,4.20
2022-10-28T19:48:58.986Z,3.80
2022-10-28T19:51:28.807Z,6.20
2022-10-28T19:53:58.161Z,3.97
2022-10-28T19:56:26.674Z,6.50
2022-10-28T19:58:57.756Z,5.23
2022-10-28T20:01:28.939Z,14.57
2022-10-28T20:03:57.286Z,13.63
2022-10-28T20:06:28.644Z,12.43
2022-10-28T20:08:56.522Z,10.27
2022-10-28T20:11:26.627Z,7.70
2022-10-28T20:13:56.155Z,8.40
2022-10-28T20:16:25.359Z,7.90
2022-10-28T20:18:54.771Z,5.90
2022-10-28T20:21:23.975Z,8.63
2022-10-28T20:23:54.563Z,5.17
2022-10-28T20:26:23.862Z,5.03
2022-10-28T20:28:52.264Z,5.53
2022-10-28T20:31:22.296Z,4.97
2022-10-28T20:33:52.583Z,5.30
2022-10-28T20:36:26.825Z,4.90
2022-10-28T20:38:55.339Z,4.60
2022-10-28T20:41:23.750Z,4.27
2022-10-28T20:43:52.544Z,5.10
2022-10-28T20:46:20.861Z,4.50
2022-10-28T20:48:49.368Z,4.60
2022-10-28T20:51:17.787Z,6.97
2022-10-28T20:53:47.072Z,6.30
2022-10-28T20:56:19.941Z,5.10
2022-10-28T20:58:48.106Z,5.40
2022-10-28T21:01:18.218Z,4.90
2022-10-28T21:03:46.741Z,7.43
2022-10-28T21:06:16.037Z,6.97
2022-10-28T21:08:44.193Z,19.60
2022-10-28T21:11:15.647Z,13.47
2022-10-28T21:13:43.895Z,9.40
2022-10-28T21:16:13.040Z,7.20
2022-10-28T21:18:41.193Z,7.13
2022-10-28T21:21:09.410Z,8.47
2022-10-28T21:23:37.222Z,11.37
2022-10-28T21:26:07.189Z,12.50
2022-10-28T21:28:37.037Z,9.40
2022-10-28T21:31:07.012Z,10.80
2022-10-28T21:33:36.205Z,8.97
2022-10-28T21:36:06.868Z,6.73
2022-10-28T21:38:35.540Z,6.83
2022-10-28T21:41:06.237Z,7.30
2022-10-28T21:43:37.683Z,6.50
2022-10-28T21:46:05.852Z,7.10
2022-10-28T21:48:35.277Z,5.90
2022-10-28T21:51:08.545Z,6.47
2022-10-28T21:53:40.467Z,7.00
2022-10-28T21:56:13.814Z,8.13
2022-10-28T21:58:45.878Z,7.77
2022-10-28T22:01:15.567Z,6.60
2022-10-28T22:03:43.604Z,7.67
2022-10-28T22:06:11.898Z,8.00
2022-10-28T22:08:39.912Z,11.47
2022-10-28T22:11:10.889Z,12.47
2022-10-28T22:13:38.778Z,8.43
2022-10-28T22:16:11.197Z,9.33
2022-10-28T22:18:39.732Z,7.80
2022-10-28T22:21:09.039Z,7.50
2022-10-28T22:23:36.863Z,8.50
2022-10-28T22:26:06.013Z,6.90
2022-10-28T22:28:34.514Z,9.00
2022-10-28T22:31:03.200Z,7.73
2022-10-28T22:33:32.490Z,7.20
2022-10-28T22:36:01.614Z,6.70
2022-10-28T22:38:30.263Z,4.30
2022-10-28T22:41:05.229Z,3.70
2022-10-28T22:43:33.750Z,3.73
2022-10-28T22:46:02.190Z,3.40
2022-10-28T22:48:30.360Z,5.27
2022-10-28T22:51:00.308Z,6.77
2022-10-28T22:53:32.144Z,6.20
2022-10-28T22:56:00.192Z,5.87
2022-10-28T22:58:28.891Z,5.90
2022-10-28T23:01:06.361Z,5.20
2022-10-28T23:03:37.860Z,5.40
2022-10-28T23:06:07.600Z,5.90
2022-10-28T23:08:36.108Z,6.30
2022-10-28T23:11:04.323Z,6.23
2022-10-28T23:13:32.246Z,6.90
2022-10-28T23:16:03.946Z,9.30
2022-10-28T23:18:31.814Z,8.00
2022-10-28T23:21:06.566Z,9.93
2022-10-28T23:23:34.762Z,8.30
2022-10-28T23:26:02.876Z,9.30
2022-10-28T23:28:31.274Z,7.67
2022-10-28T23:31:01.682Z,8.63
2022-10-28T23:33:30.817Z,28.70
2022-10-28T23:35:59.693Z,11.50
2022-10-28T23:38:28.960Z,10.07
2022-10-28T23:40:58.368Z,12.50
2022-10-28T23:43:26.696Z,3.90
2022-10-28T23:45:54.701Z,8.87
2022-10-28T23:48:23.011Z,8.67
2022-10-28T23:50:51.536Z,4.80
2022-10-28T23:53:19.954Z,7.00
2022-10-28T23:55:50.408Z,3.97
2022-10-28T23:58:19.567Z,12.27
